Time;durP1;ratioP1;P1;durP2;ratioP2;P2;SDS_P1;SDS_P2;PMS_P1;PMS_P2;Temp;Humidity;BMP_temperature;BMP_pressure;BME280_temperature;BME280_humidity;BME280_pressure;Samples;Min_cycle;Max_cycle;Signal;HPM_P1;HPM_P2
2023/06/10 00:02:22;;;;;;;0.40;0.40;;;22.50;69.40;;;22.92;53.13;94635.88;5014610;28;20554;-39
2023/06/10 00:04:50;;;;;;;0.30;0.30;;;22.50;70.30;;;22.92;52.96;94632.44;5014462;28;20185;-40
2023/06/10 00:07:17;;;;;;;0.38;0.38;;;22.50;69.50;;;22.93;52.97;94634.81;5014803;28;20197;-40
2023/06/10 00:09:45;;;;;;;0.30;0.30;;;22.60;69.50;;;22.91;53.40;94628.97;5014467;28;20512;-40
2023/06/10 00:12:12;;;;;;;0.30;0.30;;;22.50;69.40;;;22.90;53.18;94631.91;5014184;28;20284;-40
2023/06/10 00:14:42;;;;;;;0.40;0.40;;;22.50;69.50;;;22.90;53.15;94632.72;4997313;28;20197;-40
2023/06/10 00:17:09;;;;;;;0.35;0.35;;;22.60;69.60;;;22.90;53.45;94627.38;5014728;28;20309;-40
2023/06/10 00:19:41;;;;;;;0.32;0.32;;;22.50;69.50;;;22.90;53.27;94629.22;5014622;28;20629;-43
2023/06/10 00:22:10;;;;;;;0.40;0.40;;;22.50;69.50;;;22.89;53.09;94633.78;5014047;28;20177;-41
2023/06/10 00:24:38;;;;;;;0.38;0.38;;;22.50;69.50;;;22.89;53.16;94635.66;5014436;28;20276;-41
2023/06/10 00:27:06;;;;;;;0.30;0.30;;;22.50;69.60;;;22.89;53.18;94639.13;4996841;28;20265;-42
2023/06/10 00:29:34;;;;;;;0.40;0.40;;;22.50;69.50;;;22.89;53.21;94632.97;5013617;28;20603;-40
2023/06/10 00:32:02;;;;;;;0.40;0.40;;;22.50;69.50;;;22.87;53.42;94633.25;5014597;28;20295;-41
2023/06/10 00:34:30;;;;;;;0.38;0.38;;;22.50;69.50;;;22.88;53.14;94636.75;5012929;28;20213;-40
2023/06/10 00:36:58;;;;;;;0.40;0.40;;;22.50;69.50;;;22.86;53.48;94635.13;4996662;28;20212;-40
2023/06/10 00:39:25;;;;;;;0.45;0.45;;;22.50;69.60;;;22.87;53.41;94633.25;4996834;28;20227;-42
2023/06/10 00:41:52;;;;;;;0.40;0.40;;;22.50;69.60;;;22.85;53.29;94638.06;4996724;28;20228;-40
2023/06/10 00:44:19;;;;;;;0.35;0.35;;;22.50;69.60;;;22.85;53.10;94643.41;4996734;28;20279;-42
2023/06/10 00:46:47;;;;;;;0.35;0.35;;;22.50;69.70;;;22.85;53.51;94638.88;5013759;28;20628;-41
2023/06/10 00:49:16;;;;;;;0.30;0.30;;;22.50;69.60;;;22.83;53.33;94635.69;5013754;28;20675;-41
2023/06/10 00:51:43;;;;;;;0.40;0.40;;;22.50;69.60;;;22.84;53.48;94636.50;5013746;28;20287;-40
2023/06/10 00:54:13;;;;;;;0.40;0.40;;;22.50;69.60;;;22.83;53.35;94634.88;5012849;28;20264;-41
2023/06/10 00:56:42;;;;;;;0.40;0.40;;;22.50;69.60;;;22.82;53.40;94634.06;4981448;28;20630;-41
2023/06/10 00:59:10;;;;;;;0.30;0.30;;;22.50;69.60;;;22.82;53.75;94635.97;4997049;28;20213;-41
2023/06/10 01:01:38;;;;;;;0.35;0.35;;;22.40;69.60;;;22.82;53.20;94638.63;5014259;28;20278;-42
2023/06/10 01:04:05;;;;;;;0.38;0.38;;;22.40;69.60;;;22.80;53.04;94641.59;5013443;28;20200;-41
2023/06/10 01:06:47;;;;;;;0.40;0.40;;;22.50;69.60;;;22.79;53.63;94637.31;5012815;28;20534;-39
2023/06/10 01:09:52;;;;;;;0.30;0.30;;;22.40;69.60;;;22.76;53.39;94637.06;4980632;28;20713;-41
2023/06/10 01:12:37;;;;;;;0.30;0.30;;;22.50;69.60;;;22.75;53.21;94633.56;5013611;28;20546;-43
2023/06/10 01:15:05;;;;;;;0.40;0.40;;;22.40;69.60;;;22.74;53.55;94641.88;5013534;28;20190;-40
2023/06/10 01:17:32;;;;;;;0.30;0.30;;;22.40;69.50;;;22.75;53.09;94635.47;4996551;28;20217;-39
2023/06/10 01:20:11;;;;;;;0.43;0.43;;;22.40;69.60;;;22.74;53.45;94639.22;5013590;28;20270;-41
2023/06/10 01:22:39;;;;;;;0.40;0.40;;;22.40;69.60;;;22.74;53.61;94650.72;5013162;28;20201;-40
2023/06/10 01:25:07;;;;;;;0.40;0.40;;;22.40;69.60;;;22.74;53.34;94642.69;5013534;28;20259;-39
2023/06/10 01:27:39;;;;;;;0.40;0.40;;;22.40;69.70;;;22.73;53.37;94643.78;5013183;28;20217;-39
2023/06/10 01:30:18;;;;;;;0.30;0.30;;;22.40;69.80;;;22.72;53.40;94642.16;4996230;28;20267;-39
2023/06/10 01:32:50;;;;;;;0.40;0.40;;;22.30;69.70;;;22.72;53.60;94642.16;4996315;28;20188;-40
2023/06/10 01:35:18;;;;;;;0.40;0.40;;;22.40;69.80;;;22.71;53.45;94637.88;4979838;28;20202;-39
2023/06/10 01:37:47;;;;;;;0.45;0.45;;;22.30;69.70;;;22.71;53.49;94648.59;4995745;28;20217;-39
2023/06/10 01:40:16;;;;;;;0.45;0.45;;;22.30;69.70;;;22.70;53.48;94647.78;5012428;28;20572;-39
2023/06/10 01:42:43;;;;;;;0.40;0.40;;;22.30;69.70;;;22.69;53.37;94643.53;4979653;28;20237;-39
2023/06/10 01:45:12;;;;;;;0.40;0.40;;;22.40;69.80;;;22.70;53.50;94652.31;4995721;28;20213;-39
2023/06/10 01:47:39;;;;;;;0.40;0.40;;;22.30;69.70;;;22.70;53.48;94650.47;5013863;28;20287;-40
2023/06/10 01:50:07;;;;;;;0.32;0.32;;;22.30;69.80;;;22.69;53.59;94650.72;5013048;28;20196;-39
2023/06/10 01:52:35;;;;;;;0.30;0.30;;;22.40;69.80;;;22.69;53.74;94651.53;4995798;28;20224;-39
2023/06/10 01:55:02;;;;;;;0.40;0.40;;;22.30;69.80;;;22.69;53.55;94654.22;4979486;28;20300;-40
2023/06/10 01:57:29;;;;;;;0.40;0.40;;;22.30;69.70;;;22.68;53.50;94655.28;5013083;28;20212;-39
2023/06/10 01:59:57;;;;;;;0.40;0.40;;;22.30;69.80;;;22.68;53.82;94654.50;4995448;28;20726;-39
2023/06/10 02:02:25;;;;;;;0.40;0.40;;;22.40;69.90;;;22.68;53.64;94657.94;5013306;28;20593;-40
2023/06/10 02:04:52;;;;;;;0.40;0.40;;;22.30;69.80;;;22.68;53.52;94662.50;5011522;28;20520;-39
2023/06/10 02:07:20;;;;;;;0.30;0.30;;;22.30;69.80;;;22.68;53.56;94659.84;4979607;28;20255;-40
2023/06/10 02:09:48;;;;;;;0.40;0.40;;;22.40;69.90;;;22.67;53.89;94664.38;5012840;28;20207;-39
2023/06/10 02:12:15;;;;;;;0.47;0.47;;;22.30;69.90;;;22.67;53.68;94663.59;5012540;28;20622;-41
2023/06/10 02:14:44;;;;;;;0.38;0.38;;;22.30;69.80;;;22.68;53.79;94662.50;5011548;28;20201;-41
2023/06/10 02:17:12;;;;;;;0.40;0.40;;;22.30;69.80;;;22.66;53.88;94668.13;4995291;28;20298;-41
2023/06/10 02:19:52;;;;;;;0.43;0.43;;;22.30;69.80;;;22.66;53.86;94662.78;4996084;28;20542;-40
2023/06/10 02:22:22;;;;;;;0.52;0.52;;;22.30;69.90;;;22.65;53.73;94655.03;5012491;28;20227;-42
2023/06/10 02:24:49;;;;;;;0.50;0.50;;;22.30;69.80;;;22.65;53.55;94652.34;5012222;28;20201;-41
2023/06/10 02:27:18;;;;;;;0.40;0.40;;;22.30;69.90;;;22.65;54.01;94657.69;4995389;28;20193;-40
2023/06/10 02:29:45;;;;;;;0.40;0.40;;;22.30;70.80;;;22.64;53.88;94653.44;5012299;28;20265;-39
2023/06/10 02:32:12;;;;;;;0.40;0.40;;;22.30;69.90;;;22.65;53.74;94660.38;5012334;28;20199;-41
2023/06/10 02:34:42;;;;;;;0.45;0.45;;;22.30;70.00;;;22.64;53.55;94650.75;4994852;28;20197;-40
2023/06/10 02:37:10;;;;;;;0.40;0.40;;;22.30;70.00;;;22.63;53.83;94652.63;4995610;28;20219;-41
2023/06/10 02:39:38;;;;;;;0.30;0.30;;;22.30;69.90;;;22.64;53.95;94653.44;5011227;28;20276;-40
2023/06/10 02:42:10;;;;;;;0.35;0.35;;;22.30;70.00;;;22.63;53.79;94654.50;4995329;28;20197;-39
2023/06/10 02:44:38;;;;;;;0.40;0.40;;;22.30;70.00;;;22.63;53.73;94657.16;5012239;28;20220;-40
2023/06/10 02:47:07;;;;;;;0.47;0.47;;;22.30;70.00;;;22.62;53.91;94661.72;4994990;28;20291;-41
2023/06/10 02:49:36;;;;;;;0.32;0.32;;;22.30;70.00;;;22.62;54.04;94667.06;5059766;28;20566;-39
2023/06/10 02:52:04;;;;;;;0.40;0.40;;;22.30;70.00;;;22.61;53.77;94657.44;5093344;28;20309;-41
2023/06/10 02:54:31;;;;;;;0.30;0.30;;;22.30;70.00;;;22.61;54.00;94659.34;5094565;28;20259;-41
2023/06/10 02:56:58;;;;;;;0.40;0.40;;;22.30;70.00;;;22.61;54.03;94664.69;5094658;28;20516;-42
2023/06/10 02:59:28;;;;;;;0.40;0.40;;;22.30;70.00;;;22.61;53.88;94667.34;5061443;28;20313;-41
2023/06/10 03:01:55;;;;;;;0.40;0.40;;;22.30;70.00;;;22.60;53.98;94666.53;5094511;28;20207;-42
2023/06/10 03:04:25;;;;;;;0.30;0.30;;;22.30;70.10;;;22.60;54.21;94665.75;5077574;28;20254;-41
2023/06/10 03:07:03;;;;;;;0.40;0.40;;;22.30;70.00;;;22.59;54.02;94661.47;5077940;28;20205;-41
2023/06/10 03:09:34;;;;;;;0.40;0.40;;;22.30;70.00;;;22.58;53.87;94657.97;5078061;28;20234;-40
2023/06/10 03:12:03;;;;;;;0.40;0.40;;;22.30;70.10;;;22.57;54.00;94653.75;5077489;28;20202;-40
2023/06/10 03:14:35;;;;;;;0.30;0.30;;;22.30;70.00;;;22.57;54.11;94656.41;5094376;28;20223;-40
2023/06/10 03:17:04;;;;;;;0.35;0.35;;;22.30;70.10;;;22.55;53.71;94655.88;5077409;28;20593;-40
2023/06/10 03:19:33;;;;;;;0.32;0.32;;;22.30;70.10;;;22.57;54.02;94655.59;5077209;28;20219;-40
2023/06/10 03:22:14;;;;;;;0.30;0.30;;;22.20;70.00;;;22.54;54.09;94657.75;5094169;28;20662;-40
2023/06/10 03:24:53;;;;;;;0.60;0.60;;;22.20;70.10;;;22.53;54.04;94658.81;5077079;28;20197;-40
2023/06/10 03:27:20;;;;;;;0.40;0.40;;;22.20;70.00;;;22.54;54.02;94660.44;5077146;28;20326;-40
2023/06/10 03:29:51;;;;;;;0.40;0.40;;;22.20;70.10;;;22.54;54.15;94663.09;5094975;28;20210;-40
2023/06/10 03:32:19;;;;;;;0.30;0.30;;;22.20;70.10;;;22.55;53.98;94664.69;5077083;28;20297;-41
2023/06/10 03:34:47;;;;;;;0.32;0.32;;;22.20;70.10;;;22.53;54.11;94664.19;5077870;28;20219;-41
2023/06/10 03:37:15;;;;;;;0.40;0.40;;;22.20;70.10;;;22.55;53.87;94671.91;5077004;28;20657;-41
2023/06/10 03:39:44;;;;;;;0.35;0.35;;;22.20;70.10;;;22.53;54.12;94661.50;5076838;28;20229;-40
2023/06/10 03:42:11;;;;;;;0.40;0.40;;;22.20;70.10;;;22.53;54.04;94661.50;5077019;28;20266;-40
2023/06/10 03:44:38;;;;;;;0.40;0.40;;;22.20;70.10;;;22.52;54.16;94662.56;5076675;28;20326;-40
2023/06/10 03:47:05;;;;;;;0.40;0.40;;;22.20;70.00;;;22.53;53.81;94661.50;5078075;28;20205;-40
2023/06/10 03:49:33;;;;;;;0.40;0.40;;;22.20;70.10;;;22.51;53.92;94668.97;5076644;28;20230;-40
2023/06/10 03:52:02;;;;;;;0.32;0.32;;;22.20;70.10;;;22.51;53.85;94665.53;5093634;28;20208;-41
2023/06/10 03:54:29;;;;;;;0.40;0.40;;;22.20;70.00;;;22.51;53.93;94665.53;5077111;28;20206;-40
2023/06/10 03:56:56;;;;;;;0.50;0.50;;;22.20;70.00;;;22.50;54.08;94666.59;5077810;28;20217;-41
2023/06/10 03:59:23;;;;;;;0.40;0.40;;;22.20;70.00;;;22.51;54.17;94673.53;5076524;28;20719;-41
2023/06/10 04:01:51;;;;;;;0.40;0.40;;;22.20;70.00;;;22.50;53.97;94672.72;5076566;28;20288;-41
2023/06/10 04:04:18;;;;;;;0.40;0.40;;;22.20;70.10;;;22.49;53.99;94670.34;5076782;28;20218;-41
2023/06/10 04:06:47;;;;;;;0.40;0.40;;;22.20;70.00;;;22.49;54.01;94675.69;5076308;28;20212;-42
2023/06/10 04:09:15;;;;;;;0.40;0.40;;;22.20;70.00;;;22.47;53.87;94673.28;5077415;28;20201;-40
2023/06/10 04:11:43;;;;;;;0.40;0.40;;;22.20;70.10;;;22.49;53.93;94675.69;5076356;28;20537;-40
2023/06/10 04:14:10;;;;;;;0.32;0.32;;;22.20;70.00;;;22.47;53.96;94680.50;5076214;28;20281;-40
2023/06/10 04:16:42;;;;;;;0.40;0.40;;;22.20;70.90;;;22.46;53.80;94685.03;5076375;28;20268;-40
2023/06/10 04:19:10;;;;;;;0.40;0.40;;;22.20;70.00;;;22.45;53.90;94680.78;5076170;28;20233;-42
2023/06/10 04:21:38;;;;;;;0.30;0.30;;;22.20;69.90;;;22.46;53.82;94686.91;5076149;28;20631;-41
2023/06/10 04:24:05;;;;;;;0.40;0.40;;;22.20;70.00;;;22.46;53.83;94681.56;5077232;28;20229;-42
2023/06/10 04:26:35;;;;;;;0.40;0.40;;;22.20;70.00;;;22.45;54.03;94686.09;5076077;28;20206;-41
2023/06/10 04:29:03;;;;;;;0.40;0.40;;;22.20;70.00;;;22.44;53.80;94689.84;5076069;28;20208;-40
2023/06/10 04:31:31;;;;;;;0.32;0.32;;;22.10;69.80;;;22.42;54.15;94689.31;5075988;28;20201;-41
2023/06/10 04:34:00;;;;;;;0.40;0.40;;;22.10;69.80;;;22.43;53.79;94682.91;5092852;28;20208;-41
2023/06/10 04:36:29;;;;;;;0.40;0.40;;;22.10;69.80;;;22.43;54.02;94682.91;5075870;28;20312;-42
2023/06/10 04:38:56;;;;;;;0.30;0.30;;;22.10;69.80;;;22.42;54.02;94678.63;5076962;28;20609;-41
2023/06/10 04:41:25;;;;;;;0.40;0.40;;;22.10;70.80;;;22.41;53.90;94674.38;5076765;28;20570;-40
2023/06/10 04:43:53;;;;;;;0.40;0.40;;;22.10;70.00;;;22.42;53.86;94680.50;5075702;28;20635;-39
2023/06/10 04:46:20;;;;;;;0.40;0.40;;;22.10;70.00;;;22.41;54.10;94676.22;5076821;28;20194;-40
2023/06/10 04:48:48;;;;;;;0.40;0.40;;;22.10;70.00;;;22.41;54.01;94686.91;5075453;28;20687;-40
2023/06/10 04:51:15;;;;;;;0.35;0.35;;;22.10;70.00;;;22.39;53.91;94685.31;5076553;28;20581;-41
2023/06/10 04:53:42;;;;;;;0.40;0.40;;;22.10;70.00;;;22.40;53.98;94680.78;5076823;28;20527;-42
2023/06/10 04:56:09;;;;;;;0.40;0.40;;;22.10;70.00;;;22.41;54.13;94687.75;5076715;28;20315;-42
2023/06/10 04:58:36;;;;;;;0.40;0.40;;;22.10;70.00;;;22.41;53.76;94689.59;5076208;28;20226;-40
2023/06/10 05:01:04;;;;;;;0.40;0.40;;;22.10;70.00;;;22.39;53.99;94690.66;5076402;28;20220;-40
2023/06/10 05:03:31;;;;;;;0.35;0.35;;;22.00;70.00;;;22.41;54.34;94689.59;5076881;28;20202;-40
2023/06/10 05:05:58;;;;;;;0.40;0.40;;;22.00;70.10;;;22.42;54.23;94691.19;5076204;28;20187;-41
2023/06/10 05:08:25;;;;;;;0.40;0.40;;;22.10;70.20;;;22.39;54.06;94698.69;5076416;28;20236;-40
2023/06/10 05:10:52;;;;;;;0.50;0.50;;;22.10;70.20;;;22.43;54.39;94700.81;5076603;28;20644;-40
2023/06/10 05:13:19;;;;;;;0.40;0.40;;;22.10;70.20;;;22.43;54.43;94698.16;5075880;28;20190;-40
2023/06/10 05:15:46;;;;;;;0.40;0.40;;;22.10;70.20;;;22.43;53.95;94701.59;5076329;28;20212;-41
2023/06/10 05:18:14;;;;;;;0.40;0.40;;;22.10;70.20;;;22.44;54.40;94700.53;5076572;28;20258;-41
2023/06/10 05:20:41;;;;;;;0.40;0.40;;;22.10;70.20;;;22.44;54.22;94700.53;5076157;28;20189;-40
2023/06/10 05:23:08;;;;;;;0.43;0.43;;;22.20;70.40;;;22.45;54.25;94694.13;5076565;28;20194;-41
2023/06/10 05:25:35;;;;;;;0.40;0.40;;;22.20;70.40;;;22.46;54.31;94702.94;5076831;28;20291;-40
2023/06/10 05:28:03;;;;;;;0.38;0.38;;;22.10;70.30;;;22.46;54.32;94697.59;5076334;28;20198;-40
2023/06/10 05:30:31;;;;;;;0.40;0.40;;;22.20;70.30;;;22.46;54.01;94698.41;5076102;28;20202;-39
2023/06/10 05:32:58;;;;;;;0.40;0.40;;;22.20;70.30;;;22.46;54.23;94703.75;5075543;28;20224;-42
2023/06/10 05:35:25;;;;;;;0.40;0.40;;;22.20;70.30;;;22.49;54.37;94703.19;5075654;28;20730;-40
2023/06/10 05:37:52;;;;;;;0.40;0.40;;;22.20;70.30;;;22.49;54.33;94700.53;5076570;28;20202;-41
2023/06/10 05:40:19;;;;;;;0.38;0.38;;;22.20;70.30;;;22.49;54.31;94703.19;5075941;28;20221;-40
2023/06/10 05:42:46;;;;;;;0.40;0.40;;;22.20;70.30;;;22.49;54.11;94702.41;5075651;28;20193;-40
2023/06/10 05:45:14;;;;;;;0.50;0.50;;;22.20;70.30;;;22.50;54.18;94706.69;5075720;28;20521;-40
2023/06/10 05:47:41;;;;;;;0.40;0.40;;;22.20;70.30;;;22.51;54.43;94710.97;5073194;28;20192;-40
2023/06/10 05:50:09;;;;;;;0.40;0.40;;;22.20;70.20;;;22.52;54.27;94702.66;5013471;28;20335;-39
2023/06/10 05:52:37;;;;;;;0.30;0.30;;;22.20;70.20;;;22.52;54.47;94704.50;5012853;28;20207;-41
2023/06/10 05:55:04;;;;;;;0.40;0.40;;;22.20;70.30;;;22.53;54.31;94703.44;5012702;28;20636;-43
2023/06/10 05:57:32;;;;;;;0.40;0.40;;;22.30;70.30;;;22.53;54.24;94701.59;5013112;28;20196;-42
2023/06/10 05:59:59;;;;;;;0.40;0.40;;;22.20;70.20;;;22.53;54.39;94709.63;5012661;28;20216;-42
2023/06/10 06:02:26;;;;;;;0.30;0.30;;;22.30;70.20;;;22.55;54.25;94709.34;5004999;28;20274;-41
2023/06/10 06:04:53;;;;;;;0.40;0.40;;;22.30;70.30;;;22.55;54.27;94704.00;4996551;28;20203;-41
2023/06/10 06:07:21;;;;;;;0.40;0.40;;;22.30;70.20;;;22.55;54.58;94704.00;4997776;28;20201;-42
2023/06/10 06:09:48;;;;;;;0.40;0.40;;;22.30;70.20;;;22.56;54.33;94713.63;5001788;28;20203;-41
2023/06/10 06:12:15;;;;;;;0.40;0.40;;;22.30;70.20;;;22.55;54.55;94704.00;5000314;28;20266;-43
2023/06/10 06:14:42;;;;;;;0.35;0.35;;;22.30;70.20;;;22.57;54.20;94712.53;5004297;28;20601;-41
2023/06/10 06:17:09;;;;;;;0.35;0.35;;;22.30;70.20;;;22.58;54.25;94710.66;4998109;28;20606;-41
2023/06/10 06:19:36;;;;;;;0.40;0.40;;;22.40;70.30;;;22.59;54.33;94714.94;4992766;28;20214;-41
2023/06/10 06:22:03;;;;;;;0.40;0.40;;;22.30;70.20;;;22.58;54.35;94706.09;4976285;28;20503;-41
2023/06/10 06:24:30;;;;;;;0.40;0.40;;;22.40;70.20;;;22.60;54.25;94713.88;4993109;28;20310;-42
2023/06/10 06:26:57;;;;;;;0.50;0.50;;;22.30;70.20;;;22.61;54.54;94710.91;5000740;28;20294;-40
2023/06/10 06:29:24;;;;;;;0.40;0.40;;;22.40;71.20;;;22.61;54.46;94710.13;4997161;28;20193;-40
2023/06/10 06:31:52;;;;;;;0.40;0.40;;;22.30;70.20;;;22.61;54.38;94708.25;4998034;28;20208;-39
2023/06/10 06:34:20;;;;;;;0.30;0.30;;;22.30;70.20;;;22.62;54.36;94709.84;5061867;28;20205;-40
2023/06/10 06:36:46;;;;;;;0.50;0.50;;;22.40;70.30;;;22.64;54.40;94718.41;4995124;28;20225;-40
2023/06/10 06:39:14;;;;;;;0.40;0.40;;;22.40;70.30;;;22.65;54.52;94717.31;4991871;28;20313;-39
2023/06/10 06:41:42;;;;;;;0.38;0.38;;;22.40;70.30;;;22.67;54.39;94714.38;4992607;28;20205;-39
2023/06/10 06:44:09;;;;;;;0.43;0.43;;;22.40;70.20;;;22.67;54.44;94717.06;4992639;28;20221;-40
2023/06/10 06:46:38;;;;;;;0.40;0.40;;;22.40;70.30;;;22.64;54.35;94715.72;4996433;28;20216;-40
2023/06/10 06:49:05;;;;;;;0.30;0.30;;;22.40;70.30;;;22.70;54.26;94727.19;4995087;28;20331;-40
2023/06/10 06:51:32;;;;;;;0.40;0.40;;;22.40;70.30;;;22.71;54.45;94728.78;5009751;28;20200;-41
2023/06/10 06:53:59;;;;;;;0.40;0.40;;;22.40;70.30;;;22.73;54.36;94728.50;5012171;28;20220;-40
2023/06/10 06:56:27;;;;;;;0.40;0.40;;;22.50;70.30;;;22.73;54.70;94732.00;5011617;28;20687;-40
2023/06/10 06:58:55;;;;;;;0.30;0.30;;;22.50;70.30;;;22.74;54.29;94736.28;5011165;28;20221;-39
2023/06/10 07:01:24;;;;;;;0.40;0.40;;;22.50;70.30;;;22.75;54.30;94727.16;5010880;28;20587;-40
2023/06/10 07:03:51;;;;;;;0.40;0.40;;;22.50;70.30;;;22.77;54.21;94730.38;5010819;28;20197;-40
2023/06/10 07:06:18;;;;;;;0.40;0.40;;;22.50;70.30;;;22.77;54.48;94725.03;5011948;28;20209;-39
2023/06/10 07:08:45;;;;;;;0.30;0.30;;;22.50;70.20;;;22.80;54.60;94735.19;5010967;28;20235;-40
2023/06/10 07:11:13;;;;;;;0.50;0.50;;;22.50;70.20;;;22.81;54.36;94734.13;5011195;28;20193;-40
2023/06/10 07:13:41;;;;;;;0.30;0.30;;;22.50;70.10;;;22.81;54.39;94734.13;4994966;28;20189;-40
2023/06/10 07:16:08;;;;;;;0.40;0.40;;;22.50;70.10;;;22.83;54.30;94731.94;5010845;28;20213;-39
2023/06/10 07:18:36;;;;;;;0.30;0.30;;;22.60;70.20;;;22.84;54.44;94727.41;4994774;28;20196;-41
2023/06/10 07:21:03;;;;;;;0.40;0.40;;;22.60;70.10;;;22.86;54.27;94726.06;5011736;28;20201;-41
2023/06/10 07:23:30;;;;;;;0.40;0.40;;;22.60;70.10;;;22.86;54.33;94731.41;5011935;28;20201;-40
2023/06/10 07:25:57;;;;;;;0.50;0.50;;;22.60;70.10;;;22.89;54.18;94724.72;5011535;28;20217;-40
2023/06/10 07:28:25;;;;;;;0.30;0.30;;;22.60;70.10;;;22.90;54.15;94731.66;5011760;28;20191;-40
2023/06/10 07:30:52;;;;;;;0.40;0.40;;;22.60;70.10;;;22.91;53.91;94730.59;5011829;28;20197;-40
2023/06/10 07:33:19;;;;;;;0.40;0.40;;;22.60;70.10;;;22.93;54.34;94724.97;5011614;28;20272;-40
2023/06/10 07:35:47;;;;;;;0.38;0.38;;;22.70;70.10;;;22.93;54.08;94728.44;5011389;28;20258;-40
2023/06/10 07:38:14;;;;;;;0.40;0.40;;;22.70;70.10;;;22.94;54.03;94727.34;5012431;28;20280;-40
2023/06/10 07:40:41;;;;;;;0.30;0.30;;;22.70;70.10;;;22.96;54.09;94740.44;5015179;28;20241;-39
2023/06/10 07:43:08;;;;;;;0.40;0.40;;;22.70;70.00;;;22.95;53.99;94731.63;5015175;28;20297;-39
2023/06/10 07:45:35;;;;;;;0.30;0.30;;;22.70;70.00;;;22.96;54.20;94737.78;5015020;28;20623;-40
2023/06/10 07:48:02;;;;;;;0.40;0.40;;;22.70;70.00;;;22.97;54.09;94734.03;5014968;28;20279;-40
2023/06/10 07:50:29;;;;;;;0.40;0.40;;;22.70;70.00;;;22.98;53.92;94744.44;5015016;28;20205;-39
2023/06/10 07:52:56;;;;;;;0.30;0.30;;;22.70;70.00;;;23.00;54.05;94746.88;5015266;28;20539;-40
2023/06/10 07:55:25;;;;;;;0.40;0.40;;;22.70;70.00;;;23.00;54.11;94744.19;4998237;28;20232;-39
2023/06/10 07:57:54;;;;;;;0.40;0.40;;;22.70;70.00;;;23.00;54.14;94742.31;5014922;28;20647;-39
2023/06/10 08:00:21;;;;;;;0.40;0.40;;;22.70;70.00;;;23.01;54.08;94743.13;5014522;28;20290;-40
2023/06/10 08:02:48;;;;;;;0.32;0.32;;;22.70;69.90;;;23.01;53.87;94749.25;5014704;28;20617;-40
2023/06/10 08:05:16;;;;;;;0.30;0.30;;;22.70;69.90;;;23.02;53.79;94742.84;5014504;28;20198;-39
2023/06/10 08:07:44;;;;;;;0.40;0.40;;;22.70;69.90;;;23.03;53.73;94744.44;5014341;28;20193;-40
2023/06/10 08:10:11;;;;;;;0.30;0.30;;;22.70;69.90;;;23.03;54.07;94744.44;5014626;28;20233;-40
2023/06/10 08:12:38;;;;;;;0.30;0.30;;;22.70;69.90;;;23.05;54.15;94748.72;5014387;28;20193;-40
2023/06/10 08:15:06;;;;;;;0.40;0.40;;;22.70;69.90;;;23.06;54.04;94756.47;5014343;28;20296;-40
2023/06/10 08:17:34;;;;;;;0.40;0.40;;;22.80;70.00;;;23.06;54.14;94752.97;4997233;28;20205;-40
2023/06/10 08:20:01;;;;;;;0.40;0.40;;;22.70;69.90;;;23.07;53.96;94743.88;5014200;28;20735;-40
2023/06/10 08:22:29;;;;;;;0.38;0.38;;;22.70;69.90;;;23.07;53.90;94752.72;5014516;28;20243;-39
2023/06/10 08:24:56;;;;;;;0.40;0.40;;;22.80;70.10;;;23.09;54.12;94755.91;5014274;28;20655;-39
2023/06/10 08:27:23;;;;;;;0.40;0.40;;;22.80;70.10;;;23.11;54.28;94751.09;4997221;28;20285;-40
2023/06/10 08:29:51;;;;;;;0.30;0.30;;;22.80;70.00;;;23.10;53.95;94748.69;5013944;28;20231;-40
2023/06/10 08:32:18;;;;;;;0.35;0.35;;;22.80;70.00;;;23.14;53.97;94749.72;5009387;28;20201;-39
2023/06/10 08:34:45;;;;;;;0.40;0.40;;;22.80;70.00;;;23.16;54.08;94750.28;5003328;28;20686;-39
2023/06/10 08:37:12;;;;;;;0.40;0.40;;;22.80;70.10;;;23.16;54.22;94747.59;4998150;28;20236;-40
2023/06/10 08:39:39;;;;;;;0.40;0.40;;;22.80;70.10;;;23.19;54.05;94747.06;4995209;28;20220;-40
2023/06/10 08:42:33;;;;;;;0.40;0.40;;;22.90;70.10;;;23.19;53.70;94752.41;4994663;28;20282;-40
2023/06/10 08:45:02;;;;;;;0.30;0.30;;;22.90;70.10;;;23.20;53.91;94747.88;4994097;28;20194;-39
2023/06/10 08:47:36;;;;;;;0.30;0.30;;;22.90;70.00;;;23.20;53.83;94753.22;4993883;28;20224;-39
2023/06/10 08:50:05;;;;;;;0.35;0.35;;;22.90;70.00;;;23.20;53.82;94751.34;5061684;28;20196;-40
2023/06/10 08:52:37;;;;;;;0.30;0.30;;;22.90;70.00;;;23.20;53.82;94754.00;4977188;28;20238;-40
2023/06/10 08:55:25;;;;;;;0.43;0.43;;;22.90;70.90;;;23.21;53.89;94758.28;4994555;28;20648;-40
2023/06/10 08:57:57;;;;;;;0.40;0.40;;;22.90;70.00;;;23.21;53.71;94752.94;4978876;28;20269;-43
2023/06/10 09:00:26;;;;;;;0.30;0.30;;;22.90;70.00;;;23.23;53.97;94758.81;4977220;28;20310;-49
2023/06/10 09:02:54;;;;;;;0.30;0.30;;;22.90;70.00;;;23.24;54.03;94755.06;4994217;28;20225;-40
2023/06/10 09:05:22;;;;;;;0.40;0.40;;;22.90;70.00;;;23.24;53.74;94746.22;4993291;28;20259;-40
2023/06/10 09:07:51;;;;;;;0.30;0.30;;;22.90;70.10;;;23.24;54.08;94751.59;4977578;28;20520;-40
2023/06/10 09:10:18;;;;;;;0.30;0.30;;;22.90;70.10;;;23.24;53.88;94749.72;4993980;28;20201;-40
2023/06/10 09:12:46;;;;;;;0.40;0.40;;;22.90;70.20;;;23.25;53.96;94753.19;4993937;28;20202;-40
2023/06/10 09:15:14;;;;;;;0.40;0.40;;;22.90;70.20;;;23.24;54.19;94751.59;4993886;28;20219;-39
2023/06/10 09:17:41;;;;;;;0.40;0.40;;;22.90;70.20;;;23.24;54.04;94757.75;4993964;28;20258;-39
2023/06/10 09:20:09;;;;;;;0.35;0.35;;;22.90;70.30;;;23.25;54.20;94753.19;4993733;28;20280;-42
2023/06/10 09:45:13;;;;;;;0.30;0.30;;;21.90;70.90;;;23.21;56.67;94752.16;5069310;28;20849;-42
2023/06/10 09:47:40;;;;;;;0.30;0.30;;;22.50;73.80;;;23.34;56.07;94749.66;5047905;28;20206;-46
2023/06/10 09:50:08;;;;;;;0.40;0.40;;;22.70;73.00;;;23.45;55.83;94753.06;5048743;28;20196;-41
2023/06/10 09:52:38;;;;;;;0.50;0.50;;;22.90;72.50;;;23.54;55.58;94747.94;5049096;28;20198;-43
2023/06/10 09:55:10;;;;;;;0.30;0.30;;;23.10;72.00;;;23.59;55.00;94741.75;5049176;28;20195;-41
2023/06/10 09:57:37;;;;;;;0.50;0.50;;;23.20;71.70;;;23.65;54.96;94748.66;5048656;28;20609;-39
2023/06/10 10:00:07;;;;;;;0.30;0.30;;;23.30;71.50;;;23.66;54.80;94742.22;5048378;28;20201;-40
2023/06/10 10:02:51;;;;;;;0.40;0.40;;;23.40;71.30;;;23.67;54.75;94738.47;5049028;28;20170;-42
2023/06/10 10:05:21;;;;;;;0.30;0.30;;;23.40;71.10;;;23.67;54.68;94733.13;5048461;28;20242;-39
2023/06/10 10:07:50;;;;;;;0.30;0.30;;;23.40;71.00;;;23.71;54.78;94746.75;5064610;28;20255;-40
2023/06/10 10:10:19;;;;;;;0.40;0.40;;;23.40;71.00;;;23.69;54.58;94744.34;5048467;28;20285;-40
2023/06/10 10:12:50;;;;;;;0.30;0.30;;;23.40;70.90;;;23.70;54.50;94747.84;5048457;28;20225;-41
2023/06/10 10:15:18;;;;;;;0.65;0.65;;;23.40;70.90;;;23.70;54.32;94759.34;5048315;28;20221;-40
2023/06/10 10:17:52;;;;;;;0.40;0.40;;;23.40;70.80;;;23.70;54.35;94769.25;5063863;28;20228;-39
2023/06/10 10:20:29;;;;;;;0.28;0.28;;;23.40;70.80;;;23.66;54.20;94764.44;5049024;28;20259;-39
2023/06/10 10:22:58;;;;;;;0.32;0.32;;;23.40;70.70;;;23.66;54.30;94760.97;5048091;28;20233;-40
2023/06/10 10:25:38;;;;;;;0.40;0.40;;;23.40;70.70;;;23.64;54.23;94763.94;5047303;28;20697;-40
2023/06/10 10:28:10;;;;;;;0.40;0.40;;;23.30;70.70;;;23.63;54.25;94756.97;5048621;28;20507;-42
2023/06/10 10:30:53;;;;;;;0.40;0.40;;;23.30;70.70;;;23.60;54.28;94752.16;5048108;28;20204;-40
2023/06/10 10:33:31;;;;;;;0.30;0.30;;;23.30;70.70;;;23.61;54.35;94752.97;5047093;28;20257;-41
2023/06/10 10:35:59;;;;;;;0.32;0.32;;;23.30;70.80;;;23.59;54.24;94750.56;5047465;28;20195;-40
2023/06/10 10:38:28;;;;;;;0.40;0.40;;;23.30;70.80;;;23.58;54.13;94745.50;5063525;28;20674;-40
2023/06/10 10:40:59;;;;;;;0.40;0.40;;;23.30;70.90;;;23.59;54.30;94744.41;5047903;28;20291;-40
2023/06/10 10:43:28;;;;;;;0.50;0.50;;;23.20;70.80;;;23.58;54.19;94740.13;5047847;28;20575;-41
2023/06/10 10:46:08;;;;;;;0.40;0.40;;;23.20;70.80;;;23.57;54.27;94738.53;5035636;28;20225;-39
2023/06/10 10:48:40;;;;;;;0.60;0.60;;;23.20;70.80;;;23.58;54.31;94735.59;5034231;28;20189;-41
2023/06/10 10:51:09;;;;;;;0.30;0.30;;;23.20;70.80;;;23.57;54.28;94743.91;5033261;28;20198;-40